Terminal Aerodrome Forecast
Issued by NWS Jackson, MS

Home | Current Version | Previous Version | Text Only | Print | Product List | Glossary On
Versions: 1 2 3 4 5 6 7 8 9 10 11 12 13 14 15 16 17 18 19 20 21 22 23
000
FTUS44 KJAN 241000 AAF
TAFGWO
TAF AMD
KGWO 241045Z 2411/2506 00000KT 4SM BR SCT002
     FM241330 01003KT P6SM SCT020 BKN250
     FM241700 35005KT P6SM VCTS SCT030 BKN050CB
     FM242000 36008KT P6SM FEW030 SCT050
     FM250100 01003KT P6SM FEW250=

USA.gov is the U.S. government's official web portal to all federal, state and local government web resources and services.